sensor_id;sensor_type;location;lat;lon;timestamp;pressure;altitude;pressure_sealevel;temperature
76713;BMP280;65640;43.154;25.658;2023-07-20T00:00:25;100391.34;;;25.34
76713;BMP280;65640;43.154;25.658;2023-07-20T00:02:51;100379.44;;;25.24
76713;BMP280;65640;43.154;25.658;2023-07-20T00:05:16;100375.53;;;25.11
76713;BMP280;65640;43.154;25.658;2023-07-20T00:07:47;100352.50;;;24.96
76713;BMP280;65640;43.154;25.658;2023-07-20T00:10:12;100341.38;;;24.90
76713;BMP280;65640;43.154;25.658;2023-07-20T00:12:38;100340.19;;;24.88
76713;BMP280;65640;43.154;25.658;2023-07-20T00:15:03;100338.22;;;24.74
76713;BMP280;65640;43.154;25.658;2023-07-20T00:17:29;100358.41;;;24.64
76713;BMP280;65640;43.154;25.658;2023-07-20T00:19:54;100355.25;;;24.48
76713;BMP280;65640;43.154;25.658;2023-07-20T00:22:20;100363.16;;;24.31
76713;BMP280;65640;43.154;25.658;2023-07-20T00:24:45;100347.28;;;24.12
76713;BMP280;65640;43.154;25.658;2023-07-20T00:27:11;100353.53;;;23.86
76713;BMP280;65640;43.154;25.658;2023-07-20T00:29:36;100337.88;;;23.51
76713;BMP280;65640;43.154;25.658;2023-07-20T00:32:01;100313.81;;;23.18
76713;BMP280;65640;43.154;25.658;2023-07-20T00:34:30;100318.78;;;22.89
76713;BMP280;65640;43.154;25.658;2023-07-20T00:36:55;100320.19;;;22.83
76713;BMP280;65640;43.154;25.658;2023-07-20T00:39:20;100297.09;;;22.68
76713;BMP280;65640;43.154;25.658;2023-07-20T00:41:46;100311.03;;;22.58
76713;BMP280;65640;43.154;25.658;2023-07-20T00:44:11;100293.06;;;22.55
76713;BMP280;65640;43.154;25.658;2023-07-20T00:46:37;100290.03;;;22.57
76713;BMP280;65640;43.154;25.658;2023-07-20T00:49:03;100283.91;;;22.56
76713;BMP280;65640;43.154;25.658;2023-07-20T00:51:29;100288.25;;;22.64
76713;BMP280;65640;43.154;25.658;2023-07-20T00:53:55;100294.78;;;22.67
76713;BMP280;65640;43.154;25.658;2023-07-20T00:56:21;100285.63;;;22.68
76713;BMP280;65640;43.154;25.658;2023-07-20T00:58:47;100275.44;;;22.73
76713;BMP280;65640;43.154;25.658;2023-07-20T01:01:12;100271.28;;;22.79
76713;BMP280;65640;43.154;25.658;2023-07-20T01:03:38;100240.09;;;22.83
76713;BMP280;65640;43.154;25.658;2023-07-20T01:13:53;99984.75;;;23.09
76713;BMP280;65640;43.154;25.658;2023-07-20T01:16:18;100032.06;;;23.08
76713;BMP280;65640;43.154;25.658;2023-07-20T01:18:44;99998.47;;;23.07
76713;BMP280;65640;43.154;25.658;2023-07-20T01:21:13;100012.16;;;23.02
76713;BMP280;65640;43.154;25.658;2023-07-20T01:24:00;100026.56;;;22.90
76713;BMP280;65640;43.154;25.658;2023-07-20T01:26:50;100039.75;;;22.76
76713;BMP280;65640;43.154;25.658;2023-07-20T01:29:28;100018.34;;;22.69
76713;BMP280;65640;43.154;25.658;2023-07-20T01:32:00;99997.81;;;22.77
76713;BMP280;65640;43.154;25.658;2023-07-20T01:34:29;100001.28;;;22.81
76713;BMP280;65640;43.154;25.658;2023-07-20T01:36:56;100019.63;;;22.86
76713;BMP280;65640;43.154;25.658;2023-07-20T01:39:23;100032.75;;;22.98
76713;BMP280;65640;43.154;25.658;2023-07-20T01:41:49;99976.28;;;22.99
76713;BMP280;65640;43.154;25.658;2023-07-20T01:44:14;99965.47;;;22.82
76713;BMP280;65640;43.154;25.658;2023-07-20T01:46:40;99960.91;;;22.86
76713;BMP280;65640;43.154;25.658;2023-07-20T01:49:05;99982.22;;;22.82
76713;BMP280;65640;43.154;25.658;2023-07-20T01:51:31;99982.22;;;22.82
76713;BMP280;65640;43.154;25.658;2023-07-20T01:53:56;99972.66;;;22.78
76713;BMP280;65640;43.154;25.658;2023-07-20T01:56:22;99975.69;;;22.76
76713;BMP280;65640;43.154;25.658;2023-07-20T01:58:47;99989.03;;;22.76
76713;BMP280;65640;43.154;25.658;2023-07-20T02:01:12;100010.50;;;22.87
76713;BMP280;65640;43.154;25.658;2023-07-20T02:03:38;100007.38;;;22.74
76713;BMP280;65640;43.154;25.658;2023-07-20T02:06:03;100003.31;;;22.54
76713;BMP280;65640;43.154;25.658;2023-07-20T02:08:29;100006.19;;;22.38
76713;BMP280;65640;43.154;25.658;2023-07-20T02:10:54;100004.75;;;22.15
76713;BMP280;65640;43.154;25.658;2023-07-20T02:13:19;99979.22;;;22.14
76713;BMP280;65640;43.154;25.658;2023-07-20T02:15:45;99985.22;;;22.04
76713;BMP280;65640;43.154;25.658;2023-07-20T02:18:12;99987.88;;;22.04
76713;BMP280;65640;43.154;25.658;2023-07-20T02:20:38;99971.94;;;22.11
76713;BMP280;65640;43.154;25.658;2023-07-20T02:23:03;99959.50;;;22.22
76713;BMP280;65640;43.154;25.658;2023-07-20T02:25:28;99961.91;;;22.30
76713;BMP280;65640;43.154;25.658;2023-07-20T02:27:56;99949.81;;;22.40
76713;BMP280;65640;43.154;25.658;2023-07-20T02:30:21;99942.09;;;22.31
76713;BMP280;65640;43.154;25.658;2023-07-20T02:32:47;99948.91;;;22.29
76713;BMP280;65640;43.154;25.658;2023-07-20T02:35:14;99944.38;;;22.33
76713;BMP280;65640;43.154;25.658;2023-07-20T02:37:39;99942.00;;;22.21
76713;BMP280;65640;43.154;25.658;2023-07-20T02:40:05;99932.84;;;22.22
76713;BMP280;65640;43.154;25.658;2023-07-20T02:42:32;99938.81;;;22.08
76713;BMP280;65640;43.154;25.658;2023-07-20T02:44:57;99946.19;;;21.92
76713;BMP280;65640;43.154;25.658;2023-07-20T02:47:23;99940.19;;;21.99
76713;BMP280;65640;43.154;25.658;2023-07-20T02:49:49;99947.69;;;21.89
76713;BMP280;65640;43.154;25.658;2023-07-20T02:52:14;99953.72;;;21.83
76713;BMP280;65640;43.154;25.658;2023-07-20T02:54:40;99993.97;;;21.74
76713;BMP280;65640;43.154;25.658;2023-07-20T02:57:05;100002.28;;;21.47
76713;BMP280;65640;43.154;25.658;2023-07-20T02:59:31;100005.53;;;21.33
76713;BMP280;65640;43.154;25.658;2023-07-20T03:01:56;100001.06;;;21.40
76713;BMP280;65640;43.154;25.658;2023-07-20T03:04:23;100007.47;;;21.59
76713;BMP280;65640;43.154;25.658;2023-07-20T03:06:50;100026.81;;;21.82
76713;BMP280;65640;43.154;25.658;2023-07-20T03:09:16;100017.00;;;21.89
76713;BMP280;65640;43.154;25.658;2023-07-20T03:11:41;100036.34;;;21.83
76713;BMP280;65640;43.154;25.658;2023-07-20T03:14:07;100030.84;;;21.72
76713;BMP280;65640;43.154;25.658;2023-07-20T03:16:32;100018.25;;;21.69
76713;BMP280;65640;43.154;25.658;2023-07-20T03:18:59;100034.25;;;21.69
76713;BMP280;65640;43.154;25.658;2023-07-20T03:21:25;100038.38;;;21.67
76713;BMP280;65640;43.154;25.658;2023-07-20T03:23:51;100051.00;;;21.70
76713;BMP280;65640;43.154;25.658;2023-07-20T03:26:16;100057.78;;;21.67
76713;BMP280;65640;43.154;25.658;2023-07-20T03:28:42;100065.44;;;21.69
76713;BMP280;65640;43.154;25.658;2023-07-20T03:31:07;100060.84;;;21.66
76713;BMP280;65640;43.154;25.658;2023-07-20T03:33:34;100078.44;;;21.70
76713;BMP280;65640;43.154;25.658;2023-07-20T03:36:00;100079.09;;;21.67
76713;BMP280;65640;43.154;25.658;2023-07-20T03:38:26;100083.63;;;21.63
76713;BMP280;65640;43.154;25.658;2023-07-20T03:40:57;100090.59;;;21.71
76713;BMP280;65640;43.154;25.658;2023-07-20T03:43:23;100088.47;;;21.80
76713;BMP280;65640;43.154;25.658;2023-07-20T03:45:50;100084.75;;;21.85
76713;BMP280;65640;43.154;25.658;2023-07-20T03:48:17;100087.75;;;21.83
76713;BMP280;65640;43.154;25.658;2023-07-20T03:50:46;100070.28;;;21.86
76713;BMP280;65640;43.154;25.658;2023-07-20T03:53:12;100086.38;;;21.93
76713;BMP280;65640;43.154;25.658;2023-07-20T03:55:38;100079.22;;;21.97
76713;BMP280;65640;43.154;25.658;2023-07-20T03:58:06;100086.78;;;21.95
76713;BMP280;65640;43.154;25.658;2023-07-20T04:00:31;100086.81;;;21.99
76713;BMP280;65640;43.154;25.658;2023-07-20T04:02:57;100089.66;;;22.09
76713;BMP280;65640;43.154;25.658;2023-07-20T04:05:22;100098.59;;;22.20
76713;BMP280;65640;43.154;25.658;2023-07-20T04:07:47;100098.41;;;22.36
76713;BMP280;65640;43.154;25.658;2023-07-20T04:10:13;100097.41;;;22.48
76713;BMP280;65640;43.154;25.658;2023-07-20T04:12:38;100100.53;;;22.53
76713;BMP280;65640;43.154;25.658;2023-07-20T04:15:04;100098.25;;;22.52
76713;BMP280;65640;43.154;25.658;2023-07-20T04:17:29;100085.00;;;22.62
76713;BMP280;65640;43.154;25.658;2023-07-20T04:19:55;100082.09;;;22.74
76713;BMP280;65640;43.154;25.658;2023-07-20T04:22:20;100070.00;;;22.87
76713;BMP280;65640;43.154;25.658;2023-07-20T04:24:47;100072.44;;;23.03
76713;BMP280;65640;43.154;25.658;2023-07-20T04:27:12;100063.09;;;23.27
76713;BMP280;65640;43.154;25.658;2023-07-20T04:29:37;100071.34;;;23.51
76713;BMP280;65640;43.154;25.658;2023-07-20T04:32:03;100075.22;;;23.58
76713;BMP280;65640;43.154;25.658;2023-07-20T04:34:28;100071.84;;;23.71
76713;BMP280;65640;43.154;25.658;2023-07-20T04:36:54;100065.88;;;23.92
76713;BMP280;65640;43.154;25.658;2023-07-20T04:39:19;100056.84;;;24.25
76713;BMP280;65640;43.154;25.658;2023-07-20T04:41:45;100055.72;;;24.26
76713;BMP280;65640;43.154;25.658;2023-07-20T04:44:10;100054.16;;;24.21
76713;BMP280;65640;43.154;25.658;2023-07-20T04:46:35;100048.13;;;24.56
76713;BMP280;65640;43.154;25.658;2023-07-20T04:49:01;100044.72;;;24.52
76713;BMP280;65640;43.154;25.658;2023-07-20T04:51:27;100039.38;;;24.62
76713;BMP280;65640;43.154;25.658;2023-07-20T04:53:52;100044.38;;;24.85
76713;BMP280;65640;43.154;25.658;2023-07-20T04:56:18;100042.06;;;25.05
76713;BMP280;65640;43.154;25.658;2023-07-20T04:58:43;100042.09;;;25.19
76713;BMP280;65640;43.154;25.658;2023-07-20T05:01:09;100039.00;;;25.24
76713;BMP280;65640;43.154;25.658;2023-07-20T05:03:34;100036.72;;;25.19
76713;BMP280;65640;43.154;25.658;2023-07-20T05:05:59;100039.41;;;25.40
76713;BMP280;65640;43.154;25.658;2023-07-20T05:08:25;100040.13;;;25.48
76713;BMP280;65640;43.154;25.658;2023-07-20T05:10:50;100038.19;;;25.62
76713;BMP280;65640;43.154;25.658;2023-07-20T05:13:16;100035.91;;;25.54
76713;BMP280;65640;43.154;25.658;2023-07-20T05:15:41;100039.28;;;25.72
76713;BMP280;65640;43.154;25.658;2023-07-20T05:18:06;100052.19;;;26.12
76713;BMP280;65640;43.154;25.658;2023-07-20T05:20:34;100055.47;;;26.38
76713;BMP280;65640;43.154;25.658;2023-07-20T05:22:59;100064.22;;;26.56
76713;BMP280;65640;43.154;25.658;2023-07-20T05:25:26;100065.31;;;26.65
76713;BMP280;65640;43.154;25.658;2023-07-20T05:27:51;100062.56;;;26.76
76713;BMP280;65640;43.154;25.658;2023-07-20T05:30:17;100064.22;;;27.04
76713;BMP280;65640;43.154;25.658;2023-07-20T05:32:43;100063.78;;;27.12
76713;BMP280;65640;43.154;25.658;2023-07-20T05:35:10;100066.16;;;27.03
76713;BMP280;65640;43.154;25.658;2023-07-20T05:37:37;100061.53;;;27.04
76713;BMP280;65640;43.154;25.658;2023-07-20T05:40:04;100061.09;;;27.12
76713;BMP280;65640;43.154;25.658;2023-07-20T05:42:29;100062.84;;;27.29
76713;BMP280;65640;43.154;25.658;2023-07-20T05:44:55;100066.88;;;27.48
76713;BMP280;65640;43.154;25.658;2023-07-20T05:47:20;100056.00;;;27.59
76713;BMP280;65640;43.154;25.658;2023-07-20T05:49:46;100058.69;;;27.59
76713;BMP280;65640;43.154;25.658;2023-07-20T05:52:11;100060.47;;;27.72
76713;BMP280;65640;43.154;25.658;2023-07-20T05:54:38;100049.13;;;27.88
76713;BMP280;65640;43.154;25.658;2023-07-20T05:57:04;100051.59;;;28.05
76713;BMP280;65640;43.154;25.658;2023-07-20T05:59:29;100047.56;;;28.17
76713;BMP280;65640;43.154;25.658;2023-07-20T06:01:55;100053.22;;;28.26
76713;BMP280;65640;43.154;25.658;2023-07-20T06:04:20;100053.38;;;28.42
76713;BMP280;65640;43.154;25.658;2023-07-20T06:06:45;100055.50;;;28.54
76713;BMP280;65640;43.154;25.658;2023-07-20T06:09:11;100057.72;;;28.59
76713;BMP280;65640;43.154;25.658;2023-07-20T06:11:38;100057.16;;;28.71
76713;BMP280;65640;43.154;25.658;2023-07-20T06:14:04;100066.16;;;28.85
76713;BMP280;65640;43.154;25.658;2023-07-20T06:16:29;100060.91;;;28.78
76713;BMP280;65640;43.154;25.658;2023-07-20T06:18:55;100058.56;;;28.80
76713;BMP280;65640;43.154;25.658;2023-07-20T06:21:21;100062.53;;;28.48
76713;BMP280;65640;43.154;25.658;2023-07-20T06:23:46;100059.53;;;28.16
76713;BMP280;65640;43.154;25.658;2023-07-20T06:26:12;100059.84;;;28.22
76713;BMP280;65640;43.154;25.658;2023-07-20T06:28:37;100059.72;;;28.29
76713;BMP280;65640;43.154;25.658;2023-07-20T06:31:03;100059.47;;;28.46
76713;BMP280;65640;43.154;25.658;2023-07-20T06:33:29;100062.47;;;28.52
76713;BMP280;65640;43.154;25.658;2023-07-20T06:35:54;100066.91;;;28.62
76713;BMP280;65640;43.154;25.658;2023-07-20T06:38:22;100071.03;;;28.70
76713;BMP280;65640;43.154;25.658;2023-07-20T06:40:49;100061.81;;;28.67
76713;BMP280;65640;43.154;25.658;2023-07-20T06:43:14;100063.56;;;28.81
76713;BMP280;65640;43.154;25.658;2023-07-20T06:45:40;100059.56;;;28.39
76713;BMP280;65640;43.154;25.658;2023-07-20T06:48:05;100066.41;;;28.17
76713;BMP280;65640;43.154;25.658;2023-07-20T06:50:31;100067.59;;;28.43
76713;BMP280;65640;43.154;25.658;2023-07-20T06:52:56;100060.28;;;28.43
76713;BMP280;65640;43.154;25.658;2023-07-20T06:55:22;100062.22;;;28.66
76713;BMP280;65640;43.154;25.658;2023-07-20T06:57:47;100062.78;;;28.81
76713;BMP280;65640;43.154;25.658;2023-07-20T07:00:13;100062.44;;;29.02
76713;BMP280;65640;43.154;25.658;2023-07-20T07:02:38;100060.63;;;29.15
76713;BMP280;65640;43.154;25.658;2023-07-20T07:05:04;100062.97;;;29.13
76713;BMP280;65640;43.154;25.658;2023-07-20T07:07:29;100064.38;;;29.21
76713;BMP280;65640;43.154;25.658;2023-07-20T07:09:54;100061.00;;;29.17
76713;BMP280;65640;43.154;25.658;2023-07-20T07:12:20;100070.34;;;29.32
76713;BMP280;65640;43.154;25.658;2023-07-20T07:14:45;100069.56;;;29.31
76713;BMP280;65640;43.154;25.658;2023-07-20T07:17:11;100068.31;;;29.56
76713;BMP280;65640;43.154;25.658;2023-07-20T07:19:36;100062.81;;;29.79
76713;BMP280;65640;43.154;25.658;2023-07-20T07:22:03;100065.06;;;29.84
76713;BMP280;65640;43.154;25.658;2023-07-20T07:24:28;100067.66;;;29.87
76713;BMP280;65640;43.154;25.658;2023-07-20T07:27:01;100068.88;;;29.86
76713;BMP280;65640;43.154;25.658;2023-07-20T07:29:27;100075.09;;;29.83
76713;BMP280;65640;43.154;25.658;2023-07-20T07:31:52;100067.50;;;29.59
76713;BMP280;65640;43.154;25.658;2023-07-20T07:34:18;100066.19;;;29.47
76713;BMP280;65640;43.154;25.658;2023-07-20T07:36:43;100082.22;;;29.93
76713;BMP280;65640;43.154;25.658;2023-07-20T07:39:09;100074.53;;;29.92
76713;BMP280;65640;43.154;25.658;2023-07-20T07:41:34;100081.75;;;30.15
76713;BMP280;65640;43.154;25.658;2023-07-20T07:44:00;100084.13;;;30.29
76713;BMP280;65640;43.154;25.658;2023-07-20T07:46:25;100079.22;;;30.56
76713;BMP280;65640;43.154;25.658;2023-07-20T07:48:50;100077.63;;;30.58
76713;BMP280;65640;43.154;25.658;2023-07-20T07:51:16;100082.50;;;30.63
76713;BMP280;65640;43.154;25.658;2023-07-20T07:53:41;100075.75;;;30.72
76713;BMP280;65640;43.154;25.658;2023-07-20T07:56:07;100081.22;;;30.84
76713;BMP280;65640;43.154;25.658;2023-07-20T07:58:33;100086.22;;;31.14
76713;BMP280;65640;43.154;25.658;2023-07-20T08:00:59;100087.16;;;31.08
76713;BMP280;65640;43.154;25.658;2023-07-20T08:03:24;100089.91;;;30.92
76713;BMP280;65640;43.154;25.658;2023-07-20T08:05:50;100082.88;;;30.94
76713;BMP280;65640;43.154;25.658;2023-07-20T08:08:15;100090.19;;;31.39
76713;BMP280;65640;43.154;25.658;2023-07-20T08:10:40;100093.50;;;31.30
76713;BMP280;65640;43.154;25.658;2023-07-20T08:13:06;100089.59;;;31.18
76713;BMP280;65640;43.154;25.658;2023-07-20T08:15:31;100084.38;;;31.40
76713;BMP280;65640;43.154;25.658;2023-07-20T08:17:56;100087.75;;;31.15
76713;BMP280;65640;43.154;25.658;2023-07-20T08:20:22;100093.03;;;31.19
76713;BMP280;65640;43.154;25.658;2023-07-20T08:22:55;100082.84;;;31.52
76713;BMP280;65640;43.154;25.658;2023-07-20T08:25:21;100092.75;;;31.71
76713;BMP280;65640;43.154;25.658;2023-07-20T08:27:46;100094.34;;;31.56
76713;BMP280;65640;43.154;25.658;2023-07-20T08:30:13;100101.00;;;31.80
76713;BMP280;65640;43.154;25.658;2023-07-20T08:32:38;100090.41;;;31.73
76713;BMP280;65640;43.154;25.658;2023-07-20T08:35:05;100088.41;;;32.24
76713;BMP280;65640;43.154;25.658;2023-07-20T08:37:30;100085.72;;;32.11
76713;BMP280;65640;43.154;25.658;2023-07-20T08:39:56;100080.50;;;32.04
76713;BMP280;65640;43.154;25.658;2023-07-20T08:42:22;100087.25;;;32.12
76713;BMP280;65640;43.154;25.658;2023-07-20T08:44:49;100082.00;;;32.30
76713;BMP280;65640;43.154;25.658;2023-07-20T08:47:16;100088.06;;;32.47
76713;BMP280;65640;43.154;25.658;2023-07-20T08:49:42;100092.75;;;32.21
76713;BMP280;65640;43.154;25.658;2023-07-20T08:52:08;100097.19;;;32.40
76713;BMP280;65640;43.154;25.658;2023-07-20T08:54:34;100100.44;;;32.35
76713;BMP280;65640;43.154;25.658;2023-07-20T08:57:05;100090.16;;;32.64
76713;BMP280;65640;43.154;25.658;2023-07-20T08:59:31;100096.38;;;32.87
76713;BMP280;65640;43.154;25.658;2023-07-20T09:02:00;100093.69;;;32.52
76713;BMP280;65640;43.154;25.658;2023-07-20T09:04:27;100095.97;;;32.41
76713;BMP280;65640;43.154;25.658;2023-07-20T09:06:52;100099.03;;;32.78
76713;BMP280;65640;43.154;25.658;2023-07-20T09:09:18;100110.59;;;32.56
76713;BMP280;65640;43.154;25.658;2023-07-20T09:11:47;100110.66;;;32.06
76713;BMP280;65640;43.154;25.658;2023-07-20T09:14:13;100112.06;;;31.85
76713;BMP280;65640;43.154;25.658;2023-07-20T09:16:53;100126.22;;;31.77
76713;BMP280;65640;43.154;25.658;2023-07-20T09:19:19;100120.63;;;32.09
76713;BMP280;65640;43.154;25.658;2023-07-20T09:21:46;100131.75;;;32.61
76713;BMP280;65640;43.154;25.658;2023-07-20T09:24:12;100128.59;;;32.50
76713;BMP280;65640;43.154;25.658;2023-07-20T09:26:41;100117.56;;;31.82
76713;BMP280;65640;43.154;25.658;2023-07-20T09:29:08;100113.09;;;31.63
76713;BMP280;65640;43.154;25.658;2023-07-20T09:31:35;100108.69;;;32.19
76713;BMP280;65640;43.154;25.658;2023-07-20T09:34:00;100106.81;;;32.54
76713;BMP280;65640;43.154;25.658;2023-07-20T09:36:29;100078.47;;;32.89
76713;BMP280;65640;43.154;25.658;2023-07-20T09:38:54;100071.66;;;32.85
76713;BMP280;65640;43.154;25.658;2023-07-20T09:41:20;100055.94;;;32.80
76713;BMP280;65640;43.154;25.658;2023-07-20T09:43:46;100046.78;;;32.86
76713;BMP280;65640;43.154;25.658;2023-07-20T09:46:12;100064.09;;;33.23
76713;BMP280;65640;43.154;25.658;2023-07-20T09:48:37;100065.41;;;33.18
76713;BMP280;65640;43.154;25.658;2023-07-20T09:51:03;100059.38;;;33.45
76713;BMP280;65640;43.154;25.658;2023-07-20T09:53:32;100059.72;;;33.25
76713;BMP280;65640;43.154;25.658;2023-07-20T09:55:58;100058.09;;;33.37
76713;BMP280;65640;43.154;25.658;2023-07-20T09:58:26;100046.44;;;33.58
76713;BMP280;65640;43.154;25.658;2023-07-20T10:00:51;100033.19;;;34.36
76713;BMP280;65640;43.154;25.658;2023-07-20T10:03:28;100025.91;;;34.78
76713;BMP280;65640;43.154;25.658;2023-07-20T10:06:02;100020.59;;;34.21
76713;BMP280;65640;43.154;25.658;2023-07-20T10:08:33;100007.88;;;33.81
76713;BMP280;65640;43.154;25.658;2023-07-20T10:11:02;100014.88;;;33.91
76713;BMP280;65640;43.154;25.658;2023-07-20T10:13:29;100029.84;;;34.23
76713;BMP280;65640;43.154;25.658;2023-07-20T10:16:01;100019.69;;;34.05
76713;BMP280;65640;43.154;25.658;2023-07-20T10:18:31;100019.69;;;34.05
76713;BMP280;65640;43.154;25.658;2023-07-20T10:21:00;100020.31;;;34.46
76713;BMP280;65640;43.154;25.658;2023-07-20T10:23:28;100030.59;;;34.51
76713;BMP280;65640;43.154;25.658;2023-07-20T10:25:54;100026.03;;;34.66
76713;BMP280;65640;43.154;25.658;2023-07-20T10:28:21;100030.56;;;34.78
76713;BMP280;65640;43.154;25.658;2023-07-20T10:30:48;100019.25;;;34.70
76713;BMP280;65640;43.154;25.658;2023-07-20T10:33:14;100029.53;;;34.39
76713;BMP280;65640;43.154;25.658;2023-07-20T10:36:02;100034.84;;;34.34
76713;BMP280;65640;43.154;25.658;2023-07-20T10:43:45;100003.41;;;34.24
76713;BMP280;65640;43.154;25.658;2023-07-20T10:46:11;100003.41;;;34.51
76713;BMP280;65640;43.154;25.658;2023-07-20T10:49:32;100014.44;;;34.20
76713;BMP280;65640;43.154;25.658;2023-07-20T10:51:56;100013.66;;;34.47
76713;BMP280;65640;43.154;25.658;2023-07-20T10:56:48;100006.88;;;34.42
76713;BMP280;65640;43.154;25.658;2023-07-20T11:01:57;99999.63;;;34.57
76713;BMP280;65640;43.154;25.658;2023-07-20T11:04:39;99994.16;;;34.57
76713;BMP280;65640;43.154;25.658;2023-07-20T11:07:05;99998.88;;;34.39
76713;BMP280;65640;43.154;25.658;2023-07-20T11:09:35;100006.25;;;33.93
76713;BMP280;65640;43.154;25.658;2023-07-20T11:12:11;99995.25;;;34.15
76713;BMP280;65640;43.154;25.658;2023-07-20T11:14:52;99979.84;;;34.39
76713;BMP280;65640;43.154;25.658;2023-07-20T11:17:18;99985.41;;;34.62
76713;BMP280;65640;43.154;25.658;2023-07-20T11:19:48;99975.13;;;34.48
76713;BMP280;65640;43.154;25.658;2023-07-20T11:22:16;99968.22;;;34.38
76713;BMP280;65640;43.154;25.658;2023-07-20T11:24:41;99970.75;;;34.60
76713;BMP280;65640;43.154;25.658;2023-07-20T11:27:07;99972.81;;;34.74
76713;BMP280;65640;43.154;25.658;2023-07-20T11:29:35;99972.06;;;34.82
76713;BMP280;65640;43.154;25.658;2023-07-20T11:32:02;99982.75;;;34.95
76713;BMP280;65640;43.154;25.658;2023-07-20T11:34:30;99968.31;;;34.53
76713;BMP280;65640;43.154;25.658;2023-07-20T11:36:55;99968.16;;;34.65
76713;BMP280;65640;43.154;25.658;2023-07-20T11:39:22;99972.06;;;34.82
76713;BMP280;65640;43.154;25.658;2023-07-20T11:41:48;99967.03;;;34.90
76713;BMP280;65640;43.154;25.658;2023-07-20T11:44:21;99964.59;;;34.92
76713;BMP280;65640;43.154;25.658;2023-07-20T11:46:59;99963.75;;;34.77
76713;BMP280;65640;43.154;25.658;2023-07-20T11:49:26;99955.06;;;34.97
76713;BMP280;65640;43.154;25.658;2023-07-20T11:51:52;99951.72;;;35.02
76713;BMP280;65640;43.154;25.658;2023-07-20T11:54:18;99944.63;;;34.95
76713;BMP280;65640;43.154;25.658;2023-07-20T11:56:43;99952.16;;;35.09
76713;BMP280;65640;43.154;25.658;2023-07-20T11:59:09;99940.69;;;34.96
76713;BMP280;65640;43.154;25.658;2023-07-20T12:01:34;99940.94;;;34.65
76713;BMP280;65640;43.154;25.658;2023-07-20T12:04:03;99934.78;;;34.56
76713;BMP280;65640;43.154;25.658;2023-07-20T12:06:29;99932.56;;;34.87
76713;BMP280;65640;43.154;25.658;2023-07-20T12:08:57;99927.91;;;35.35
76713;BMP280;65640;43.154;25.658;2023-07-20T12:11:35;99910.03;;;35.43
76713;BMP280;65640;43.154;25.658;2023-07-20T12:14:01;99918.16;;;35.52
76713;BMP280;65640;43.154;25.658;2023-07-20T12:16:28;99907.50;;;35.78
76713;BMP280;65640;43.154;25.658;2023-07-20T12:19:04;99903.34;;;35.68
76713;BMP280;65640;43.154;25.658;2023-07-20T12:21:30;99882.72;;;36.05
76713;BMP280;65640;43.154;25.658;2023-07-20T12:23:57;99885.34;;;36.28
76713;BMP280;65640;43.154;25.658;2023-07-20T12:26:24;99884.78;;;36.10
76713;BMP280;65640;43.154;25.658;2023-07-20T12:28:50;99870.59;;;36.06
76713;BMP280;65640;43.154;25.658;2023-07-20T12:31:16;99865.31;;;36.02
76713;BMP280;65640;43.154;25.658;2023-07-20T12:33:42;99852.06;;;36.10
76713;BMP280;65640;43.154;25.658;2023-07-20T12:36:09;99850.13;;;35.57
76713;BMP280;65640;43.154;25.658;2023-07-20T12:38:34;99844.38;;;35.17
76713;BMP280;65640;43.154;25.658;2023-07-20T12:41:03;99853.28;;;34.94
76713;BMP280;65640;43.154;25.658;2023-07-20T12:43:29;99850.88;;;34.63
76713;BMP280;65640;43.154;25.658;2023-07-20T12:45:55;99849.59;;;34.41
76713;BMP280;65640;43.154;25.658;2023-07-20T12:48:21;99861.84;;;34.36
76713;BMP280;65640;43.154;25.658;2023-07-20T12:50:47;99866.69;;;34.74
76713;BMP280;65640;43.154;25.658;2023-07-20T12:53:12;99853.13;;;34.65
76713;BMP280;65640;43.154;25.658;2023-07-20T12:55:38;99855.59;;;34.54
76713;BMP280;65640;43.154;25.658;2023-07-20T12:58:07;99845.91;;;34.53
76713;BMP280;65640;43.154;25.658;2023-07-20T13:00:33;99863.97;;;34.23
76713;BMP280;65640;43.154;25.658;2023-07-20T13:02:59;99853.88;;;34.05
76713;BMP280;65640;43.154;25.658;2023-07-20T13:05:25;99844.38;;;33.83
76713;BMP280;65640;43.154;25.658;2023-07-20T13:07:50;99849.34;;;33.84
76713;BMP280;65640;43.154;25.658;2023-07-20T13:10:16;99849.22;;;33.79
76713;BMP280;65640;43.154;25.658;2023-07-20T13:12:41;99857.53;;;34.12
76713;BMP280;65640;43.154;25.658;2023-07-20T13:15:08;99852.56;;;34.61
76713;BMP280;65640;43.154;25.658;2023-07-20T13:17:35;99848.38;;;34.83
76713;BMP280;65640;43.154;25.658;2023-07-20T13:20:02;99843.25;;;35.09
76713;BMP280;65640;43.154;25.658;2023-07-20T13:22:30;99844.91;;;35.30
76713;BMP280;65640;43.154;25.658;2023-07-20T13:24:55;99842.25;;;35.59
76713;BMP280;65640;43.154;25.658;2023-07-20T13:27:20;99841.38;;;35.92
76713;BMP280;65640;43.154;25.658;2023-07-20T13:29:46;99845.84;;;35.66
76713;BMP280;65640;43.154;25.658;2023-07-20T13:32:15;99830.88;;;35.23
76713;BMP280;65640;43.154;25.658;2023-07-20T13:34:41;99831.06;;;35.57
76713;BMP280;65640;43.154;25.658;2023-07-20T13:37:07;99818.94;;;35.58
76713;BMP280;65640;43.154;25.658;2023-07-20T13:39:33;99814.59;;;35.14
76713;BMP280;65640;43.154;25.658;2023-07-20T13:41:58;99810.56;;;35.09
76713;BMP280;65640;43.154;25.658;2023-07-20T13:44:24;99806.66;;;35.01
76713;BMP280;65640;43.154;25.658;2023-07-20T13:46:50;99809.53;;;35.07
76713;BMP280;65640;43.154;25.658;2023-07-20T13:49:15;99810.75;;;35.20
76713;BMP280;65640;43.154;25.658;2023-07-20T13:51:42;99815.47;;;35.20
76713;BMP280;65640;43.154;25.658;2023-07-20T13:54:07;99800.72;;;35.50
76713;BMP280;65640;43.154;25.658;2023-07-20T13:56:33;99796.31;;;35.52
76713;BMP280;65640;43.154;25.658;2023-07-20T13:58:58;99794.97;;;35.48
76713;BMP280;65640;43.154;25.658;2023-07-20T14:01:23;99810.72;;;35.29
76713;BMP280;65640;43.154;25.658;2023-07-20T14:03:50;99802.28;;;35.04